Backyard Camera more information Backyard Camera


Rain radar more information rain snow radar


Visit our other sites:

Saratoga Weather Website

M82A1 Firearms Board

About This Template


Local fire risc:
CBI



There are no active watches, warnings or advisories

Nearby METAR Reports

   
KTHV - York, PA
Distance from station: WSW 12 mi
Updated: Sep 28 2021 2:53 am
Clear  
Clear  
   Wind: Calm
Wind: Calm
Temperature: 57.2°F
Dew Point: 53.6°F
Humidity: 88%
Barometer: 29.88 inHg
Clouds: Clear
Visibility: 10 mi
Cloud details: Clear
KTHV 280653Z AUTO 00000KT 10SM CLR 14/12 A2988 RMK AO2 SLP118 T01440122
KMDT - Middletown, PA
Distance from station: NNW 18 mi
Updated: Sep 28 2021 2:56 am
Few Clouds  
Few Clouds  
   Wind: varies 3.5 mph
Wind: varies 3.5 mph
Temperature: 66.2°F
Dew Point: 55.4°F
Humidity: 68%
Barometer: 29.87 inHg
Clouds: Few Clouds
Visibility: 10 mi
Cloud details: Few Clouds 3658 m,
Few Clouds 6096 m
KMDT 280656Z VRB03KT 10SM FEW120 FEW200 19/13 A2987 RMK AO2 SLP114 T01890128
KCXY - Harrisburg, PA
Distance from station: NNW 21 mi
Updated: Sep 28 2021 2:56 am
Clear  
Clear  
   Wind: Calm
Wind: Calm
Temperature: 62.6°F
Dew Point: 55.4°F
Humidity: 77%
Barometer: 29.88 inHg
Clouds: Clear
Visibility: 10 mi
Cloud details: Clear
KCXY 280656Z AUTO 00000KT 10SM CLR 17/13 A2988 RMK AO2 SLP117 T01670128
KLNS - Lancaster, PA
Distance from station: ENE 22 mi
Updated: Sep 28 2021 2:53 am
Clear  
Clear  
   Wind: Calm
Wind: Calm
Temperature: 60.8°F
Dew Point: 53.6°F
Humidity: 77%
Barometer: 29.88 inHg
Clouds: Clear
Visibility: 10 mi
Cloud details: Clear
KLNS 280653Z AUTO 00000KT 10SM CLR 16/12 A2988 RMK AO2 SLP117 T01610122
KAPG - Aberdeen, MD
Distance from station: SE 43 mi
Updated: Sep 28 2021 2:58 am
Clear  
Clear  
   Wind: Calm
Wind: Calm
Temperature: 60.8°F
Dew Point: 57.2°F
Humidity: 88%
Barometer: 29.88 inHg
Clouds: Clear
Visibility: 10 mi
Cloud details: Clear
KAPG 280658Z AUTO 00000KT 10SM CLR 16/14 A2988 RMK AO2 SLP121 T01580142
KMTN - Baltimore/Martin, MD
Distance from station: SSE 46 mi
Updated: Sep 28 2021 3:35 am
Clear  
Clear  
   Wind: Calm
Wind: Calm
Temperature: 64.4°F
Dew Point: 59°F
Humidity: 83%
Barometer: 29.9 inHg
Clouds: Clear
Visibility: 10 mi
Cloud details: Clear
KMTN 280735Z AUTO 00000KT 10SM CLR 18/15 A2990 RMK AO2
KDMH - Baltimore/Downtown, MD
Distance from station: S 46 mi
Updated: Jun 4 2020 7:54 am
NOT Current
  
  
   Wind: Calm
Wind: Calm
Barometer: 29.88 inHg
KDMH 041154Z AUTO A2988 RMK AO1 SLP120 6//// 7//// 53020 PNO $
KFDK - Frederick, MD
Distance from station: SW 53 mi
Updated: Sep 28 2021 3:15 am
Clear  
Clear  
   Wind: Calm
Wind: Calm
Temperature: 60.8°F
Dew Point: 57.2°F
Humidity: 88%
Barometer: 29.9 inHg
Clouds: Clear
Visibility: 7 mi
Cloud details: Clear
KFDK 280715Z AUTO 00000KT 7SM CLR 16/14 A2990 RMK AO2
KBWI - Baltimore/Washington, MD
Distance from station: S 54 mi
Updated: Sep 28 2021 2:54 am
Few Clouds  
Few Clouds  
   Wind: Calm
Wind: Calm
Temperature: 64.4°F
Dew Point: 55.4°F
Humidity: 73%
Barometer: 29.9 inHg
Clouds: Few Clouds
Visibility: 10 mi
Cloud details: Few Clouds 5486 m
KBWI 280654Z 00000KT 10SM FEW180 18/13 A2990 RMK AO2 SLP124 T01780133
KHGR - Hagerstown, MD
Distance from station: WSW 60 mi
Updated: Sep 28 2021 2:53 am
Clear  
Clear  
   Wind: SSW 4.6 mph
Wind: SSW 4.6 mph
Temperature: 66.2°F
Dew Point: 55.4°F
Humidity: 68%
Barometer: 29.9 inHg
Clouds: Clear
Visibility: 10 mi
Cloud details: Clear
KHGR 280653Z AUTO 20004KT 10SM CLR 19/13 A2990 RMK AO2 SLP129 T01890133 $
KILG - Wilmington, DE
Distance from station: ESE 60 mi
Updated: Sep 28 2021 2:51 am
Clear  
Clear  
   Wind: SSW 3.5 mph
Wind: SSW 3.5 mph
Temperature: 64.4°F
Dew Point: 57.2°F
Humidity: 78%
Barometer: 29.9 inHg
Clouds: Clear
Visibility: 10 mi
Cloud details: Clear
KILG 280651Z AUTO 21003KT 10SM CLR 18/14 A2990 RMK AO2 SLP124 T01780139 $
KFME - Ft. Meade, MD
Distance from station: S 60 mi
Updated: Sep 28 2021 3:35 am
Clear  
Clear  
   Wind: Calm
Wind: Calm
Temperature: 55.4°F
Dew Point: 55.4°F
Humidity: 100%
Barometer: 29.93 inHg
Clouds: Clear
Visibility: 10 mi
Cloud details: Clear
KFME 280735Z AUTO 00000KT 10SM CLR 13/13 A2993 RMK AO1
KAGC - Pittsburgh/Allegheny, PA, USA
Distance from station: WNW 222 mi
Updated: Sep 28 2021 2:53 am
Mostly Cloudy  
Mostly Cloudy  
   Wind: South 10.4 mph
Wind: South 10.4 mph
Temperature: 66.2°F
Dew Point: 59°F
Humidity: 78%
Barometer: 29.89 inHg
Clouds: Mostly Cloudy
Visibility: 10 mi
Cloud details: Mostly Cloudy 2286 m,
Mostly Cloudy 2896 m
KAGC 280653Z 19009KT 10SM BKN075 BKN095 19/15 A2989 RMK AO2 SLP115 T01940150
KUNV - State College, Pennsylvania, USA
Distance from station: NW 118 mi
Updated: Sep 28 2021 3:35 am
Clear  
Clear  
   Wind: SW 6.9 mph
Wind: SW 6.9 mph
Temperature: 66.2°F
Dew Point: 57.2°F
Humidity: 73%
Barometer: 29.86 inHg
Clouds: Clear
Visibility: 10 mi
Cloud details: Clear
KUNV 280735Z AUTO 22006KT 10SM CLR 19/14 A2986 RMK AO2 LTG DSNT W T01900141
 

Script developed by  Saratoga-weather.org Adapted for the template by  Weerstation Leuven

You find our weather info also at:

WeatherCloud

Weather Underground

Northeastern Weather Network

AWEKAS

Citizen Weather Observer Program (CWOP)

Equipment we use:

Weather-station
Davis VP2

Weather-program
Weather Display

Weather-server
Intel NUC

Provider
GoDaddy

Davis VP2

Weather Display

Intel NUC

GoDaddy